Terminal Aerodrome Forecast
Issued by NWS Paducah, KY

Home | Current Version | Previous Version | Text Only | Print | Product List | Glossary On
Versions: 1 2 3 4 5 6 7 8 9 10 11 12 13 14 15 16 17 18 19 20 21 22 23 24
000
FTUS43 KPAH 261126
TAFEVV
TAF
KEVV 261126Z 2612/2712 17006KT P6SM -SHRA SCT025 BKN050
      TEMPO 2612/2614 4SM -SHRA BR OVC020
     FM261600 21011G18KT P6SM BKN035
     FM262300 20003KT P6SM SCT040 BKN250=

USA.gov is the U.S. government's official web portal to all federal, state and local government web resources and services.